createdAt,value
2023-02-01T06:18:36.518Z,24.56
2023-02-01T06:28:36.501Z,25.12
2023-02-01T06:38:36.559Z,28.14
2023-02-01T06:48:36.603Z,30.57
2023-02-01T06:58:36.608Z,29.13
2023-02-01T07:08:36.668Z,31.28
2023-02-01T07:18:36.644Z,28.09
2023-02-01T07:28:36.611Z,29.99
2023-02-01T07:38:36.669Z,21.91
2023-02-01T07:48:36.737Z,25.00
2023-02-01T07:58:36.691Z,21.63
2023-02-01T08:08:36.627Z,22.34
2023-02-01T08:18:36.713Z,24.76
2023-02-01T08:28:37.963Z,34.21
2023-02-01T08:38:36.848Z,14.90
2023-02-01T08:48:37.085Z,17.16
2023-02-01T08:58:37.071Z,19.82
2023-02-01T09:08:36.993Z,20.80
2023-02-01T09:18:41.974Z,28.32
2023-02-01T09:28:37.052Z,26.85
2023-02-01T09:38:41.670Z,26.20
2023-02-01T09:48:37.237Z,29.59
2023-02-01T09:58:37.109Z,31.36
2023-02-01T10:08:37.159Z,35.07
2023-02-01T10:18:37.224Z,32.83
2023-02-01T10:28:37.250Z,26.52
2023-02-01T10:38:37.119Z,26.66
2023-02-01T10:48:37.046Z,23.22
2023-02-01T10:58:37.087Z,23.38
2023-02-01T11:08:37.119Z,29.37
2023-02-01T11:18:37.282Z,25.92
2023-02-01T11:28:37.174Z,26.90
2023-02-01T11:38:37.028Z,27.02
2023-02-01T11:48:37.208Z,31.55
2023-02-01T11:58:37.255Z,30.59
2023-02-01T12:08:37.114Z,29.53
2023-02-01T12:18:37.105Z,31.03
2023-02-01T12:28:37.129Z,28.07
2023-02-01T12:38:37.092Z,30.11
2023-02-01T12:48:37.008Z,30.32
2023-02-01T12:58:37.095Z,33.62
2023-02-01T13:08:36.983Z,33.16
2023-02-01T13:18:37.028Z,34.23
2023-02-01T13:28:37.012Z,38.77
2023-02-01T13:38:37.039Z,36.46
2023-02-01T13:48:37.042Z,25.46
2023-02-01T13:58:37.045Z,24.39
2023-02-01T14:08:37.159Z,20.31
2023-02-01T14:18:37.376Z,21.72
2023-02-01T14:28:37.092Z,19.22
2023-02-01T14:38:37.083Z,23.73
2023-02-01T14:48:37.208Z,22.65
2023-02-01T14:58:37.137Z,20.89
2023-02-01T15:08:37.238Z,17.94
2023-02-01T15:18:37.175Z,17.86
2023-02-01T15:28:37.078Z,20.20
2023-02-01T15:38:37.223Z,20.46
2023-02-01T15:48:37.053Z,19.02
2023-02-01T15:58:37.181Z,20.07
2023-02-01T16:08:37.165Z,20.71
2023-02-01T16:18:37.099Z,24.92
2023-02-01T16:28:37.184Z,19.65
2023-02-01T16:38:37.230Z,19.86
2023-02-01T16:48:37.248Z,18.65
2023-02-01T16:58:37.223Z,16.65
2023-02-01T17:08:37.197Z,18.46
2023-02-01T17:18:37.317Z,16.32
2023-02-01T17:28:37.233Z,18.20
2023-02-01T17:38:37.187Z,24.41
2023-02-01T17:48:37.209Z,23.87
2023-02-01T17:58:37.218Z,26.66
2023-02-01T18:08:37.310Z,16.39
2023-02-01T18:18:38.224Z,11.85
2023-02-01T18:28:37.337Z,11.87
2023-02-01T18:38:37.349Z,13.65
2023-02-01T18:48:37.373Z,14.81
2023-02-01T18:58:37.368Z,18.76
2023-02-01T19:08:37.471Z,16.73
2023-02-01T19:18:37.564Z,20.29
